Time;durP1;ratioP1;P1;durP2;ratioP2;P2;SDS_P1;SDS_P2;PMS_P1;PMS_P2;Temp;Humidity;BMP_temperature;BMP_pressure;BME280_temperature;BME280_humidity;BME280_pressure;Samples;Min_cycle;Max_cycle;Signal;HPM_P1;HPM_P2
2023/01/14 00:02:26;;;;;;;23.00;5.13;;;;;;;-150.27;100.00;61272.81;5272907;28;20028;-71
2023/01/14 00:04:58;;;;;;;23.90;6.10;;;;;;;-150.27;100.00;61272.81;5271168;28;20035;-70
2023/01/14 00:07:29;;;;;;;22.53;4.93;;;;;;;-150.27;100.00;61272.81;5273975;28;20085;-70
2023/01/14 00:10:01;;;;;;;23.43;6.07;;;;;;;-150.27;100.00;61272.81;5276784;28;20476;-71
2023/01/14 00:12:33;;;;;;;19.27;4.40;;;;;;;-150.27;100.00;61272.81;5277173;28;20043;-72
2023/01/14 00:15:05;;;;;;;25.40;5.47;;;;;;;-150.27;100.00;61272.81;5276936;28;20136;-69
2023/01/14 00:17:36;;;;;;;24.83;5.83;;;;;;;-150.27;100.00;61272.81;5277158;28;20421;-72
2023/01/14 00:20:08;;;;;;;19.23;5.00;;;;;;;-150.27;100.00;61272.81;5276093;28;20051;-72
2023/01/14 00:22:39;;;;;;;21.73;5.93;;;;;;;-150.27;100.00;61272.81;5277085;28;20119;-71
2023/01/14 00:25:11;;;;;;;27.83;6.10;;;;;;;-150.27;100.00;61272.81;5275721;28;20134;-71
2023/01/14 00:27:42;;;;;;;25.17;5.37;;;;;;;-150.27;100.00;61272.81;5276016;28;20028;-71
2023/01/14 00:30:13;;;;;;;21.23;5.40;;;;;;;-150.27;100.00;61272.81;5275964;28;20044;-71
2023/01/14 00:32:45;;;;;;;27.97;6.17;;;;;;;-150.27;100.00;61272.81;5275500;28;20177;-70
2023/01/14 00:35:16;;;;;;;25.33;6.40;;;;;;;-150.27;100.00;61272.81;5274590;28;20115;-72
2023/01/14 00:37:47;;;;;;;24.93;5.57;;;;;;;-150.27;100.00;61272.81;5276009;28;20032;-72
2023/01/14 00:40:18;;;;;;;25.90;5.47;;;;;;;-150.27;100.00;61272.81;5275075;28;20089;-72
2023/01/14 00:42:50;;;;;;;27.43;5.47;;;;;;;-150.27;100.00;61272.81;5274108;28;20542;-71
2023/01/14 00:45:21;;;;;;;29.67;5.83;;;;;;;-150.27;100.00;61272.81;5274815;28;20111;-72
2023/01/14 00:47:52;;;;;;;29.37;5.80;;;;;;;-150.27;100.00;61272.81;5276026;28;20029;-70
2023/01/14 00:50:23;;;;;;;23.80;5.37;;;;;;;-150.27;100.00;61272.81;5274178;28;20471;-71
2023/01/14 00:52:55;;;;;;;26.20;6.83;;;;;;;-150.27;100.00;61272.81;5272856;28;20707;-71
2023/01/14 00:55:26;;;;;;;33.40;6.70;;;;;;;-150.27;100.00;61272.81;5275711;28;20029;-70
2023/01/14 00:57:57;;;;;;;30.03;10.00;;;;;;;-150.27;100.00;61272.81;5272650;28;20069;-70
2023/01/14 01:00:29;;;;;;;26.77;6.33;;;;;;;-150.27;100.00;61272.81;5273845;28;20040;-71
2023/01/14 01:03:00;;;;;;;35.80;7.77;;;;;;;-150.27;100.00;61272.81;5275725;28;20051;-71
2023/01/14 01:05:35;;;;;;;27.83;8.53;;;;;;;-150.27;100.00;61272.81;5275035;28;20025;-71
2023/01/14 01:08:11;;;;;;;24.00;5.60;;;;;;;-150.27;100.00;61272.81;5276828;28;20024;-71
2023/01/14 01:10:44;;;;;;;36.47;8.53;;;;;;;-150.27;100.00;61272.81;5274795;28;20032;-71
2023/01/14 01:13:16;;;;;;;31.20;6.80;;;;;;;-150.27;100.00;61272.81;5273881;28;20016;-71
2023/01/14 01:15:47;;;;;;;30.63;6.93;;;;;;;-150.27;100.00;61272.81;5274658;28;20040;-71
2023/01/14 01:18:19;;;;;;;40.30;6.73;;;;;;;-150.27;100.00;61272.81;5276356;28;20060;-71
2023/01/14 01:20:50;;;;;;;46.33;8.60;;;;;;;-150.27;100.00;61272.81;5273126;28;20028;-71
2023/01/14 01:23:21;;;;;;;29.43;5.90;;;;;;;-150.27;100.00;61272.81;5275014;28;20036;-70
2023/01/14 01:26:04;;;;;;;27.17;5.60;;;;;;;-150.27;100.00;61272.81;5275786;28;20028;-70
2023/01/14 01:28:35;;;;;;;37.03;7.00;;;;;;;-150.27;100.00;61272.81;5274153;28;20357;-71
2023/01/14 01:31:10;;;;;;;34.60;7.43;;;;;;;-150.27;100.00;61272.81;5274144;28;20036;-72
2023/01/14 01:33:41;;;;;;;;;;;;;;;-150.27;100.00;61272.81;5274998;28;20024;-70
2023/01/14 01:36:16;;;;;;;32.33;6.87;;;;;;;-150.27;100.00;61272.81;5274352;28;20283;-71
2023/01/14 01:38:48;;;;;;;30.55;7.03;;;;;;;-150.27;100.00;61272.81;5274196;28;20107;-69
2023/01/14 01:41:25;;;;;;;32.60;6.23;;;;;;;-150.27;100.00;61272.81;5272988;28;20028;-71
2023/01/14 01:44:02;;;;;;;29.47;6.70;;;;;;;-150.27;100.00;61272.81;5272944;28;20036;-69
2023/01/14 01:46:35;;;;;;;35.63;7.47;;;;;;;-150.27;100.00;61272.81;5274244;28;20039;-69
2023/01/14 01:49:07;;;;;;;35.33;6.73;;;;;;;-150.27;100.00;61272.81;5274618;28;20029;-72
2023/01/14 01:51:44;;;;;;;32.17;6.53;;;;;;;-150.27;100.00;61272.81;5272791;28;20093;-72
2023/01/14 01:54:19;;;;;;;27.77;6.77;;;;;;;-150.27;100.00;61272.81;5275067;28;20020;-70
2023/01/14 01:56:51;;;;;;;;;;;;;;;-150.27;100.00;61272.81;5274502;28;20032;-71
2023/01/14 01:59:25;;;;;;;37.50;6.90;;;;;;;-150.27;100.00;61272.81;5273493;28;19916;-71
2023/01/14 02:01:57;;;;;;;39.40;6.72;;;;;;;-150.27;100.00;61272.81;5273638;28;20054;-73
2023/01/14 02:04:28;;;;;;;29.47;8.10;;;;;;;-150.27;100.00;61272.81;5271952;28;20039;-72
2023/01/14 02:07:00;;;;;;;28.17;6.90;;;;;;;-150.27;100.00;61272.81;5274798;28;20075;-73
2023/01/14 02:09:31;;;;;;;30.57;6.67;;;;;;;-150.27;100.00;61272.81;5274184;28;20021;-72
2023/01/14 02:12:32;;;;;;;39.60;8.50;;;;;;;-150.27;100.00;61272.81;5271682;28;20040;-71
2023/01/14 02:15:29;;;;;;;40.70;9.93;;;;;;;-150.27;100.00;61272.81;5282285;28;20072;-72
2023/01/14 02:18:24;;;;;;;41.47;8.53;;;;;;;-150.27;100.00;61272.81;5272859;28;20044;-72
2023/01/14 02:21:15;;;;;;;41.50;8.50;;;;;;;-150.27;100.00;61272.81;5303770;22;20053;-72
2023/01/14 02:24:06;;;;;;;39.67;7.93;;;;;;;-150.27;100.00;61272.81;5247303;28;20540;-71
2023/01/14 02:26:46;;;;;;;30.17;6.17;;;;;;;-150.27;100.00;61272.81;5244316;28;20024;-69
2023/01/14 02:29:35;;;;;;;33.97;6.10;;;;;;;-150.27;100.00;61272.81;5253390;28;20032;-71
2023/01/14 02:32:32;;;;;;;31.57;6.30;;;;;;;-150.27;100.00;61272.81;5225287;28;20725;-70
2023/01/14 02:35:12;;;;;;;40.60;7.53;;;;;;;-150.27;100.00;61272.81;5231540;28;20037;-70
2023/01/14 02:38:10;;;;;;;34.27;7.43;;;;;;;-150.27;100.00;61272.81;5251427;28;20067;-70
2023/01/14 02:40:55;;;;;;;45.80;8.10;;;;;;;-150.27;100.00;61272.81;5223496;28;20040;-71
2023/01/14 02:44:10;;;;;;;31.67;6.63;;;;;;;-150.27;100.00;61272.81;5232378;28;20128;-71
2023/01/14 02:46:49;;;;;;;34.53;8.17;;;;;;;-150.27;100.00;61272.81;5245177;28;20035;-70
2023/01/14 02:49:25;;;;;;;30.07;5.93;;;;;;;-150.27;100.00;61272.81;5213224;28;20013;-71
2023/01/14 02:51:57;;;;;;;28.03;6.23;;;;;;;-150.27;100.00;61272.81;5228686;28;20033;-71
2023/01/14 02:54:28;;;;;;;35.73;6.77;;;;;;;-150.27;100.00;61272.81;5251385;28;20013;-71
2023/01/14 02:57:07;;;;;;;36.73;7.37;;;;;;;-150.27;100.00;61272.81;5233598;28;20082;-71
2023/01/14 02:59:47;;;;;;;41.13;8.80;;;;;;;-150.27;100.00;61272.81;5221131;28;20051;-71
2023/01/14 03:03:06;;;;;;;32.33;6.13;;;;;;;-150.27;100.00;61272.81;5251265;28;20033;-72
2023/01/14 03:06:08;;;;;;;40.40;8.33;;;;;;;-150.27;100.00;61272.81;5206101;28;20056;-71
2023/01/14 03:09:00;;;;;;;35.07;6.23;;;;;;;-150.27;100.00;61272.81;5247328;28;20387;-70
2023/01/14 03:11:57;;;;;;;32.60;6.03;;;;;;;-150.27;100.00;61272.81;5245503;28;20044;-71
2023/01/14 03:14:38;;;;;;;32.93;7.30;;;;;;;-150.27;100.00;61272.81;5236670;28;20029;-71
2023/01/14 03:17:38;;;;;;;38.13;7.27;;;;;;;-150.27;100.00;61272.81;5241145;28;20025;-71
2023/01/14 03:20:30;;;;;;;38.03;8.27;;;;;;;-150.27;100.00;61272.81;5226261;28;20041;-70
2023/01/14 03:23:10;;;;;;;38.17;7.37;;;;;;;-150.27;100.00;61272.81;5242911;28;20040;-70
2023/01/14 03:25:44;;;;;;;34.60;7.20;;;;;;;-150.27;100.00;61272.81;5239354;28;20032;-71
2023/01/14 03:28:20;;;;;;;30.60;6.60;;;;;;;-150.27;100.00;61272.81;5237153;28;20480;-69
2023/01/14 03:30:59;;;;;;;30.00;7.50;;;;;;;-150.27;100.00;61272.81;5234388;28;20067;-71
2023/01/14 03:33:36;;;;;;;35.80;8.13;;;;;;;-150.27;100.00;61272.81;5252358;28;20395;-71
2023/01/14 03:36:07;;;;;;;32.93;7.83;;;;;;;-150.27;100.00;61272.81;5252067;28;20479;-70
2023/01/14 03:38:46;;;;;;;47.10;7.70;;;;;;;-150.27;100.00;61272.81;5248181;28;20028;-70
2023/01/14 03:44:19;;;;;;;33.17;7.20;;;;;;;-150.27;100.00;61272.81;5251655;28;20064;-69
2023/01/14 03:46:50;;;;;;;32.73;7.57;;;;;;;-150.27;100.00;61272.81;5237412;28;20025;-70
2023/01/14 03:49:22;;;;;;;31.43;6.03;;;;;;;-150.27;100.00;61272.81;5249165;28;20575;-70
2023/01/14 03:51:57;;;;;;;39.40;6.23;;;;;;;-150.27;100.00;61272.81;5220273;28;20032;-69
2023/01/14 03:54:43;;;;;;;33.15;6.13;;;;;;;-150.27;100.00;61272.81;5230704;28;20028;-71
2023/01/14 03:57:20;;;;;;;28.10;6.83;;;;;;;-150.27;100.00;61272.81;5240780;28;20044;-69
2023/01/14 04:00:07;;;;;;;24.57;6.53;;;;;;;-150.27;100.00;61272.81;5245623;28;20045;-71
2023/01/14 04:02:40;;;;;;;39.70;7.10;;;;;;;-150.27;100.00;61272.81;5244847;28;20060;-70
2023/01/14 04:05:12;;;;;;;33.07;6.73;;;;;;;-150.27;100.00;61272.81;5229021;28;20033;-70
2023/01/14 04:07:48;;;;;;;30.13;6.77;;;;;;;-150.27;100.00;61272.81;5243471;28;20092;-71
2023/01/14 04:10:20;;;;;;;34.83;6.87;;;;;;;-150.27;100.00;61272.81;5236035;28;20072;-71
2023/01/14 04:15:41;;;;;;;35.03;6.97;;;;;;;-150.27;100.00;61272.81;5235715;28;20119;-71
2023/01/14 04:18:13;;;;;;;26.63;6.03;;;;;;;-150.27;100.00;61272.81;5238513;28;20112;-71
2023/01/14 04:20:44;;;;;;;26.90;6.20;;;;;;;-150.27;100.00;61272.81;5248487;28;20123;-69
2023/01/14 04:23:15;;;;;;;34.07;6.40;;;;;;;-150.27;100.00;61272.81;5250055;28;20044;-71
2023/01/14 04:25:46;;;;;;;25.07;6.40;;;;;;;-150.27;100.00;61272.81;5251057;28;20111;-71
2023/01/14 04:28:18;;;;;;;25.87;4.43;;;;;;;-150.27;100.00;61272.81;5250390;28;20035;-70
2023/01/14 04:30:49;;;;;;;27.93;6.00;;;;;;;-150.27;100.00;61272.81;5251543;28;20074;-71
2023/01/14 04:33:21;;;;;;;31.67;6.17;;;;;;;-150.27;100.00;61272.81;5250735;28;20040;-70
2023/01/14 04:35:52;;;;;;;28.13;5.73;;;;;;;-150.27;100.00;61272.81;5250250;28;20125;-71
2023/01/14 04:38:24;;;;;;;26.03;6.73;;;;;;;-150.27;100.00;61272.81;5252926;28;20059;-71
2023/01/14 04:40:56;;;;;;;28.30;6.40;;;;;;;-150.27;100.00;61272.81;5236335;28;20029;-71
2023/01/14 04:43:27;;;;;;;29.00;5.73;;;;;;;-150.27;100.00;61272.81;5247142;28;20036;-71
2023/01/14 04:45:58;;;;;;;30.87;6.33;;;;;;;-150.27;100.00;61272.81;5250131;28;20117;-70
2023/01/14 04:48:29;;;;;;;23.27;5.10;;;;;;;-150.27;100.00;61272.81;5238177;28;20045;-71
2023/01/14 04:51:01;;;;;;;29.77;5.30;;;;;;;-150.27;100.00;61272.81;5251036;28;20029;-71
2023/01/14 04:53:32;;;;;;;39.17;7.93;;;;;;;-150.27;100.00;61272.81;5247008;28;20393;-70
2023/01/14 04:56:04;;;;;;;24.87;4.63;;;;;;;-150.27;100.00;61272.81;5253872;28;20037;-72
2023/01/14 04:58:35;;;;;;;27.03;5.53;;;;;;;-150.27;100.00;61272.81;5223436;28;20529;-72
2023/01/14 05:01:06;;;;;;;23.27;5.20;;;;;;;-150.27;100.00;61272.81;5235062;28;20040;-69
2023/01/14 05:03:38;;;;;;;24.07;5.70;;;;;;;-150.27;100.00;61272.81;5236065;28;20502;-71
2023/01/14 05:06:09;;;;;;;25.33;6.40;;;;;;;-150.27;100.00;61272.81;5235279;28;20075;-70
2023/01/14 05:08:40;;;;;;;22.90;4.87;;;;;;;-150.27;100.00;61272.81;5235149;28;20063;-72
2023/01/14 05:11:11;;;;;;;26.20;5.77;;;;;;;-150.27;100.00;61272.81;5235766;28;20053;-69
2023/01/14 05:13:43;;;;;;;26.73;5.60;;;;;;;-150.27;100.00;61272.81;5234208;28;20200;-71
2023/01/14 05:16:18;;;;;;;27.70;5.53;;;;;;;-150.27;100.00;61272.81;5234912;28;20523;-72
2023/01/14 05:18:51;;;;;;;32.13;6.07;;;;;;;-150.27;100.00;61272.81;5218055;28;20022;-70
2023/01/14 05:21:24;;;;;;;22.43;4.47;;;;;;;-150.27;100.00;61272.81;5235533;28;20104;-72
2023/01/14 05:23:55;;;;;;;21.80;5.03;;;;;;;-150.27;100.00;61272.81;5233549;28;20029;-71
2023/01/14 05:26:26;;;;;;;20.30;4.43;;;;;;;-150.27;100.00;61272.81;5247066;28;20029;-72
2023/01/14 05:28:57;;;;;;;25.40;5.33;;;;;;;-150.27;100.00;61272.81;5254796;28;20029;-72
2023/01/14 05:31:29;;;;;;;24.63;4.20;;;;;;;-150.27;100.00;61272.81;5253168;28;20025;-70
2023/01/14 05:34:00;;;;;;;25.43;5.30;;;;;;;-150.27;100.00;61272.81;5253104;28;20474;-72
2023/01/14 05:36:31;;;;;;;23.77;6.17;;;;;;;-150.27;100.00;61272.81;5253205;28;20025;-70
2023/01/14 05:39:02;;;;;;;25.43;5.53;;;;;;;-150.27;100.00;61272.81;5254691;28;20033;-71
2023/01/14 05:41:34;;;;;;;22.43;6.47;;;;;;;-150.27;100.00;61272.81;5236085;28;20067;-72
2023/01/14 05:46:55;;;;;;;27.87;5.93;;;;;;;-150.27;100.00;61272.81;5234782;28;20387;-72
2023/01/14 05:49:26;;;;;;;16.23;4.17;;;;;;;-150.27;100.00;61272.81;5232328;28;20041;-71
2023/01/14 05:51:57;;;;;;;31.57;5.93;;;;;;;-150.27;100.00;61272.81;5233643;28;20033;-71
2023/01/14 05:54:28;;;;;;;17.97;5.03;;;;;;;-150.27;100.00;61272.81;5251865;28;20028;-71
2023/01/14 05:57:00;;;;;;;28.77;5.60;;;;;;;-150.27;100.00;61272.81;5253447;28;20029;-71
2023/01/14 05:59:31;;;;;;;20.33;5.03;;;;;;;-150.27;100.00;61272.81;5253101;28;20040;-71
2023/01/14 06:07:42;;;;;;;22.27;4.57;;;;;;;-150.27;100.00;61272.81;5218210;28;20037;-72
2023/01/14 06:10:13;;;;;;;24.67;5.60;;;;;;;-150.27;100.00;61272.81;5237764;28;20033;-71
2023/01/14 06:13:03;;;;;;;27.17;4.47;;;;;;;-150.27;100.00;61272.81;5233347;28;20040;-72
2023/01/14 06:15:36;;;;;;;22.37;4.17;;;;;;;-150.27;100.00;61272.81;5223654;28;20033;-71
2023/01/14 06:18:14;;;;;;;22.50;6.07;;;;;;;-150.27;100.00;61272.81;5242082;28;20110;-72
2023/01/14 06:20:45;;;;;;;22.30;5.20;;;;;;;-150.27;100.00;61272.81;5238193;28;20132;-72
2023/01/14 06:23:18;;;;;;;25.93;4.80;;;;;;;-150.27;100.00;61272.81;5233683;28;20492;-72
2023/01/14 06:25:49;;;;;;;18.50;5.07;;;;;;;-150.27;100.00;61272.81;5236228;28;20399;-71
2023/01/14 06:28:20;;;;;;;24.17;5.83;;;;;;;-150.27;100.00;61272.81;5252155;28;20033;-72
2023/01/14 06:30:52;;;;;;;25.80;5.47;;;;;;;-150.27;100.00;61272.81;5249175;28;20021;-70
2023/01/14 06:33:23;;;;;;;24.60;6.10;;;;;;;-150.27;100.00;61272.81;5246405;28;20064;-71
2023/01/14 06:35:55;;;;;;;27.10;6.37;;;;;;;-150.27;100.00;61272.81;5252689;28;20067;-72
2023/01/14 06:38:27;;;;;;;30.47;6.87;;;;;;;-150.27;100.00;61272.81;5233826;28;20375;-71
2023/01/14 06:41:03;;;;;;;25.87;6.03;;;;;;;-150.27;100.00;61272.81;5235877;28;20025;-71
2023/01/14 06:43:35;;;;;;;28.57;6.90;;;;;;;-150.27;100.00;61272.81;5246314;28;20041;-71
2023/01/14 06:46:06;;;;;;;20.47;5.77;;;;;;;-150.27;100.00;61272.81;5239955;28;20564;-72
2023/01/14 06:48:39;;;;;;;23.67;4.27;;;;;;;-150.27;100.00;61272.81;5237127;28;20231;-72
2023/01/14 06:51:16;;;;;;;17.50;4.13;;;;;;;-150.27;100.00;61272.81;5248095;28;20056;-71
2023/01/14 06:53:47;;;;;;;29.50;5.80;;;;;;;-150.27;100.00;61272.81;5247011;28;20479;-71
2023/01/14 06:56:18;;;;;;;17.10;4.30;;;;;;;-150.27;100.00;61272.81;5229136;28;20083;-71
2023/01/14 06:58:50;;;;;;;23.43;4.17;;;;;;;-150.27;100.00;61272.81;5255002;28;20032;-72
2023/01/14 07:01:21;;;;;;;22.07;5.00;;;;;;;-150.27;100.00;61272.81;5239547;28;20032;-71
2023/01/14 07:03:52;;;;;;;25.00;3.73;;;;;;;-150.27;100.00;61272.81;5244140;28;20040;-73
2023/01/14 07:06:24;;;;;;;25.60;4.73;;;;;;;-150.27;100.00;61272.81;5235939;28;20524;-71
2023/01/14 07:08:55;;;;;;;19.93;4.83;;;;;;;-150.27;100.00;61272.81;5232274;28;20667;-70
2023/01/14 07:11:26;;;;;;;25.77;3.97;;;;;;;-150.27;100.00;61272.81;5240677;28;20033;-71
2023/01/14 07:13:57;;;;;;;24.00;5.67;;;;;;;-150.27;100.00;61272.81;5230976;28;20029;-69
2023/01/14 07:16:29;;;;;;;19.80;4.33;;;;;;;-150.27;100.00;61272.81;5232695;28;20091;-70
2023/01/14 07:19:00;;;;;;;18.43;4.00;;;;;;;-150.27;100.00;61272.81;5240266;28;20116;-71
2023/01/14 07:21:31;;;;;;;19.53;4.20;;;;;;;-150.27;100.00;61272.81;5239498;28;20042;-69
2023/01/14 07:24:03;;;;;;;19.50;4.03;;;;;;;-150.27;100.00;61272.81;5234160;28;20388;-71
2023/01/14 07:26:34;;;;;;;19.57;4.70;;;;;;;-150.27;100.00;61272.81;5226111;28;20407;-70
2023/01/14 07:29:05;;;;;;;23.73;4.20;;;;;;;-150.27;100.00;61272.81;5232217;28;20030;-70
2023/01/14 07:31:37;;;;;;;16.77;3.47;;;;;;;-150.27;100.00;61272.81;5233812;28;20037;-71
2023/01/14 07:34:08;;;;;;;23.03;6.47;;;;;;;-150.27;100.00;61272.81;5231545;28;20056;-68
2023/01/14 07:36:40;;;;;;;20.37;4.57;;;;;;;-150.27;100.00;61272.81;5232528;28;20025;-70
2023/01/14 07:39:11;;;;;;;24.60;5.73;;;;;;;-150.27;100.00;61272.81;5233211;28;20033;-71
2023/01/14 07:41:43;;;;;;;15.50;3.93;;;;;;;-150.27;100.00;61272.81;5228865;28;20116;-70
2023/01/14 07:44:14;;;;;;;16.53;3.50;;;;;;;-150.27;100.00;61272.81;5231023;28;20037;-69
2023/01/14 07:46:45;;;;;;;20.17;4.77;;;;;;;-150.27;100.00;61272.81;5230753;28;20112;-70
2023/01/14 07:49:17;;;;;;;18.50;3.47;;;;;;;-150.27;100.00;61272.81;5213987;28;20034;-70
2023/01/14 07:51:49;;;;;;;16.40;3.33;;;;;;;-150.27;100.00;61272.81;5230204;28;20046;-70
2023/01/14 07:54:20;;;;;;;17.97;3.80;;;;;;;-150.27;100.00;61272.81;5232448;28;20678;-69
2023/01/14 07:56:51;;;;;;;22.83;5.00;;;;;;;-150.27;100.00;61272.81;5228626;28;20487;-71
2023/01/14 07:59:22;;;;;;;14.80;3.90;;;;;;;-150.27;100.00;61272.81;5228577;28;20017;-70
2023/01/14 08:01:54;;;;;;;15.00;3.70;;;;;;;-150.27;100.00;61272.81;5208266;28;20017;-70
2023/01/14 08:04:25;;;;;;;12.40;3.00;;;;;;;-150.27;100.00;61272.81;5211226;28;20022;-70
2023/01/14 08:06:58;;;;;;;10.70;2.97;;;;;;;-150.27;100.00;61272.81;5231339;28;21060;-70
2023/01/14 08:09:29;;;;;;;15.33;3.10;;;;;;;-150.27;100.00;61272.81;5229691;28;20072;-70
2023/01/14 08:12:01;;;;;;;13.67;3.93;;;;;;;-150.27;100.00;61272.81;5230347;28;20060;-69
2023/01/14 08:14:32;;;;;;;15.83;3.53;;;;;;;-150.27;100.00;61272.81;5210473;28;20029;-70
2023/01/14 08:17:05;;;;;;;12.53;3.10;;;;;;;-150.27;100.00;61272.81;5225185;28;20349;-71
2023/01/14 08:19:36;;;;;;;11.73;2.87;;;;;;;-150.27;100.00;61272.81;5245595;28;20032;-69
2023/01/14 08:22:07;;;;;;;11.07;2.73;;;;;;;-150.27;100.00;61272.81;5228957;28;20618;-71
2023/01/14 08:24:39;;;;;;;12.20;2.67;;;;;;;-150.27;100.00;61272.81;5234246;28;20178;-72
2023/01/14 08:27:10;;;;;;;12.80;3.40;;;;;;;-150.27;100.00;61272.81;5229865;28;20025;-72
2023/01/14 08:29:41;;;;;;;6.87;1.90;;;;;;;-150.27;100.00;61272.81;5233844;28;20033;-72
2023/01/14 08:32:13;;;;;;;8.90;2.20;;;;;;;-150.27;100.00;61272.81;5234216;28;20036;-75
2023/01/14 08:34:45;;;;;;;8.47;1.80;;;;;;;-150.27;100.00;61272.81;5237044;28;20087;-71
2023/01/14 08:37:16;;;;;;;7.20;1.97;;;;;;;-150.27;100.00;61272.81;5244862;28;20029;-71
2023/01/14 08:39:47;;;;;;;7.47;1.83;;;;;;;-150.27;100.00;61272.81;5243722;28;20584;-73
2023/01/14 08:42:19;;;;;;;6.43;2.13;;;;;;;-150.27;100.00;61272.81;5234068;28;20051;-71
2023/01/14 08:44:50;;;;;;;9.63;2.43;;;;;;;-150.27;100.00;61272.81;5218442;28;20025;-71
2023/01/14 08:47:21;;;;;;;12.77;3.33;;;;;;;-150.27;100.00;61272.81;5234448;28;20037;-71
2023/01/14 08:49:52;;;;;;;8.83;2.37;;;;;;;-150.27;100.00;61272.81;5236424;28;20021;-71
2023/01/14 08:52:24;;;;;;;6.57;1.83;;;;;;;-150.27;100.00;61272.81;5236032;28;20121;-71
2023/01/14 08:54:55;;;;;;;8.63;1.70;;;;;;;-150.27;100.00;61272.81;5218043;28;20040;-71
2023/01/14 08:57:27;;;;;;;7.67;2.20;;;;;;;-150.27;100.00;61272.81;5235222;28;20060;-71
2023/01/14 08:59:59;;;;;;;11.80;2.83;;;;;;;-150.27;100.00;61272.81;5234289;28;20552;-71
2023/01/14 09:02:31;;;;;;;11.10;3.23;;;;;;;-150.27;100.00;61272.81;5249081;28;20128;-70
2023/01/14 09:05:02;;;;;;;9.67;3.60;;;;;;;-150.27;100.00;61272.81;5234080;28;20040;-70
2023/01/14 09:18:53;;;;;;;11.50;3.03;;;;;;;-150.27;100.00;61272.81;5235316;28;20427;-70
2023/01/14 09:21:25;;;;;;;9.67;2.30;;;;;;;-150.27;100.00;61272.81;5235630;28;20041;-70
2023/01/14 09:23:56;;;;;;;11.50;3.10;;;;;;;-150.27;100.00;61272.81;5216856;28;20104;-70
2023/01/14 09:26:27;;;;;;;9.90;1.80;;;;;;;-150.27;100.00;61272.81;5234472;28;20032;-71
2023/01/14 09:28:58;;;;;;;8.57;2.00;;;;;;;-150.27;100.00;61272.81;5235453;28;20035;-69
2023/01/14 09:31:30;;;;;;;9.13;1.97;;;;;;;-150.27;100.00;61272.81;5234878;28;20472;-69
2023/01/14 09:34:01;;;;;;;10.97;1.93;;;;;;;-150.27;100.00;61272.81;5235442;28;20025;-69
2023/01/14 09:36:32;;;;;;;7.57;2.37;;;;;;;-150.27;100.00;61272.81;5235581;28;20057;-70
2023/01/14 09:39:04;;;;;;;10.20;2.63;;;;;;;-150.27;100.00;61272.81;5234969;28;20729;-69
2023/01/14 09:41:39;;;;;;;11.37;2.70;;;;;;;-150.27;100.00;61272.81;5233083;28;20116;-69
2023/01/14 09:44:11;;;;;;;7.47;2.10;;;;;;;-150.27;100.00;61272.81;5234543;28;20479;-69
2023/01/14 09:46:43;;;;;;;6.90;2.13;;;;;;;-150.27;100.00;61272.81;5235691;28;20112;-68
2023/01/14 09:49:18;;;;;;;11.70;2.77;;;;;;;-150.27;100.00;61272.81;5234184;28;20109;-69
2023/01/14 09:52:08;;;;;;;12.63;2.70;;;;;;;-150.27;100.00;61272.81;5235475;28;20100;-69
2023/01/14 09:55:08;;;;;;;14.97;2.83;;;;;;;-150.27;100.00;61272.81;5217390;28;20040;-69
2023/01/14 09:57:53;;;;;;;13.10;2.53;;;;;;;-150.27;100.00;61272.81;5234135;28;20036;-68
2023/01/14 10:00:49;;;;;;;13.75;3.63;;;;;;;-150.27;100.00;61272.81;5233887;28;20029;-69
2023/01/14 10:03:30;;;;;;;12.97;2.90;;;;;;;-150.27;100.00;61272.81;5233905;28;20526;-70
2023/01/14 10:06:06;;;;;;;11.17;3.07;;;;;;;-150.27;100.00;61272.81;5233810;28;20025;-69
2023/01/14 10:08:42;;;;;;;12.70;3.17;;;;;;;-150.27;100.00;61272.81;5234611;28;20029;-69
2023/01/14 10:11:14;;;;;;;16.50;4.67;;;;;;;-150.27;100.00;61272.81;5232890;28;20048;-69
2023/01/14 10:14:04;;;;;;;11.37;2.47;;;;;;;-150.27;100.00;61272.81;5234791;28;20025;-70
2023/01/14 10:16:42;;;;;;;12.73;3.63;;;;;;;-150.27;100.00;61272.81;5234184;28;20147;-70
2023/01/14 10:19:39;;;;;;;11.20;3.50;;;;;;;-150.27;100.00;61272.81;5234298;28;20021;-69
2023/01/14 10:22:35;;;;;;;8.73;3.50;;;;;;;-150.27;100.00;61272.81;5234187;28;20048;-69
2023/01/14 10:25:14;;;;;;;;;;;;;;;-150.27;100.00;61272.81;5233806;28;20030;-69
2023/01/14 10:27:51;;;;;;;11.40;2.73;;;;;;;-150.27;100.00;61272.81;5233360;28;19992;-69
2023/01/14 10:30:35;;;;;;;12.80;3.03;;;;;;;-150.27;100.00;61272.81;5233773;28;20025;-69
2023/01/14 10:33:11;;;;;;;9.53;2.93;;;;;;;-150.27;100.00;61272.81;5233308;28;20032;-69
2023/01/14 10:35:46;;;;;;;9.93;2.03;;;;;;;-150.27;100.00;61272.81;5234272;28;20022;-69
2023/01/14 10:38:20;;;;;;;;;;;;;;;-150.27;100.00;61272.81;5234048;28;20498;-70
2023/01/14 10:40:55;;;;;;;7.37;2.77;;;;;;;-150.27;100.00;61272.81;5232536;28;20338;-69
2023/01/14 10:43:32;;;;;;;8.37;2.33;;;;;;;-150.27;100.00;61272.81;5234017;28;20087;-71
2023/01/14 10:46:03;;;;;;;14.43;2.97;;;;;;;-150.27;100.00;61272.81;5216052;28;20083;-70
2023/01/14 10:48:49;;;;;;;7.63;2.87;;;;;;;-150.27;100.00;61272.81;5234209;28;20349;-69
2023/01/14 10:51:36;;;;;;;9.93;2.20;;;;;;;-150.27;100.00;61272.81;5233233;28;20104;-69
2023/01/14 10:54:21;;;;;;;13.33;2.17;;;;;;;-150.27;100.00;61272.81;5233483;28;20044;-69
2023/01/14 10:56:57;;;;;;;9.90;2.23;;;;;;;-150.27;100.00;61272.81;5232865;28;20021;-70
2023/01/14 11:00:08;;;;;;;5.63;2.00;;;;;;;-150.27;100.00;61272.81;5215416;28;20667;-70
2023/01/14 11:02:47;;;;;;;6.60;1.73;;;;;;;-150.27;100.00;61272.81;5188904;28;20053;-70
2023/01/14 11:05:26;;;;;;;10.63;1.97;;;;;;;-150.27;100.00;61272.81;5229652;28;20061;-70
2023/01/14 11:08:19;;;;;;;8.07;2.43;;;;;;;-150.27;100.00;61272.81;5232734;28;20025;-70
2023/01/14 11:11:18;;;;;;;7.57;1.60;;;;;;;-150.27;100.00;61272.81;5213886;28;20021;-70
2023/01/14 11:13:53;;;;;;;6.17;1.60;;;;;;;-150.27;100.00;61272.81;5213592;28;20053;-71
2023/01/14 11:16:24;;;;;;;4.70;1.40;;;;;;;-150.27;100.00;61272.81;5232870;28;20108;-70
2023/01/14 11:19:16;;;;;;;6.53;1.90;;;;;;;-150.27;100.00;61272.81;5215895;28;20597;-70
2023/01/14 11:21:50;;;;;;;9.10;2.07;;;;;;;-150.27;100.00;61272.81;5233006;28;20045;-69
2023/01/14 11:24:35;;;;;;;5.00;1.55;;;;;;;-150.27;100.00;61272.81;5232851;28;20074;-70
2023/01/14 11:27:13;;;;;;;;;;;;;;;-150.27;100.00;61272.81;5214411;28;20033;-69
2023/01/14 11:29:59;;;;;;;6.47;1.73;;;;;;;-150.27;100.00;61272.81;5233115;28;20399;-70
2023/01/14 11:32:36;;;;;;;4.17;1.30;;;;;;;-150.27;100.00;61272.81;5232834;28;20040;-69
2023/01/14 11:35:19;;;;;;;4.20;1.53;;;;;;;-150.27;100.00;61272.81;5232101;28;20030;-69
2023/01/14 11:37:53;;;;;;;6.27;1.30;;;;;;;-150.27;100.00;61272.81;5233393;28;20025;-70
2023/01/14 11:43:22;;;;;;;5.23;1.40;;;;;;;-150.27;100.00;61272.81;5253595;28;20049;-69
2023/01/14 11:46:05;;;;;;;3.07;1.10;;;;;;;-150.27;100.00;61272.81;5248783;28;20087;-70
2023/01/14 11:48:37;;;;;;;6.13;1.40;;;;;;;-150.27;100.00;61272.81;5232765;28;20515;-70
2023/01/14 11:51:20;;;;;;;4.40;1.50;;;;;;;-150.27;100.00;61272.81;5229908;28;20109;-69
2023/01/14 11:53:53;;;;;;;6.80;1.90;;;;;;;-150.27;100.00;61272.81;5232553;28;20079;-68
2023/01/14 11:56:38;;;;;;;3.93;1.20;;;;;;;-150.27;100.00;61272.81;5230207;28;20027;-69
2023/01/14 11:59:32;;;;;;;2.60;0.90;;;;;;;-150.27;100.00;61272.81;5232583;28;20021;-68
2023/01/14 12:02:19;;;;;;;6.30;1.33;;;;;;;-150.27;100.00;61272.81;5231114;28;20021;-66
2023/01/14 12:05:00;;;;;;;3.63;0.97;;;;;;;-150.27;100.00;61272.81;5234683;28;20037;-68
2023/01/14 12:07:40;;;;;;;3.30;1.00;;;;;;;-150.27;100.00;61272.81;5240638;28;20021;-67
2023/01/14 12:10:22;;;;;;;4.07;1.30;;;;;;;-150.27;100.00;61272.81;5235835;28;20113;-67
2023/01/14 12:19:16;;;;;;;3.20;1.10;;;;;;;-150.27;100.00;61272.81;5236306;28;20037;-67